sensor_id;sensor_type;location;lat;lon;timestamp;temperature;humidity
68128;SHT30;54931;52.098;21.006;2022-08-30T00:01:08;16.32;78.17
68128;SHT30;54931;52.098;21.006;2022-08-30T00:03:38;16.24;78.28
68128;SHT30;54931;52.098;21.006;2022-08-30T00:06:12;16.18;78.58
68128;SHT30;54931;52.098;21.006;2022-08-30T00:08:43;16.16;78.73
68128;SHT30;54931;52.098;21.006;2022-08-30T00:11:15;16.14;78.90
68128;SHT30;54931;52.098;21.006;2022-08-30T00:13:47;16.12;79.25
68128;SHT30;54931;52.098;21.006;2022-08-30T00:16:19;16.13;79.46
68128;SHT30;54931;52.098;21.006;2022-08-30T00:18:48;16.15;79.25
68128;SHT30;54931;52.098;21.006;2022-08-30T00:21:16;16.15;79.37
68128;SHT30;54931;52.098;21.006;2022-08-30T00:23:43;16.16;79.66
68128;SHT30;54931;52.098;21.006;2022-08-30T00:26:10;16.19;79.65
68128;SHT30;54931;52.098;21.006;2022-08-30T00:28:38;16.20;80.18
68128;SHT30;54931;52.098;21.006;2022-08-30T00:31:05;16.23;79.90
68128;SHT30;54931;52.098;21.006;2022-08-30T00:33:33;16.25;80.09
68128;SHT30;54931;52.098;21.006;2022-08-30T00:36:00;16.29;79.82
68128;SHT30;54931;52.098;21.006;2022-08-30T00:38:28;16.33;79.84
68128;SHT30;54931;52.098;21.006;2022-08-30T00:40:56;16.35;79.76
68128;SHT30;54931;52.098;21.006;2022-08-30T00:43:26;16.35;79.80
68128;SHT30;54931;52.098;21.006;2022-08-30T00:45:56;16.35;79.68
68128;SHT30;54931;52.098;21.006;2022-08-30T00:48:23;16.35;79.76
68128;SHT30;54931;52.098;21.006;2022-08-30T00:50:55;16.35;79.59
68128;SHT30;54931;52.098;21.006;2022-08-30T00:53:36;16.33;79.59
68128;SHT30;54931;52.098;21.006;2022-08-30T00:56:07;16.29;79.70
68128;SHT30;54931;52.098;21.006;2022-08-30T00:58:39;16.29;79.63
68128;SHT30;54931;52.098;21.006;2022-08-30T01:01:12;16.26;79.54
68128;SHT30;54931;52.098;21.006;2022-08-30T01:03:40;16.24;79.59
68128;SHT30;54931;52.098;21.006;2022-08-30T01:06:10;16.22;79.62
68128;SHT30;54931;52.098;21.006;2022-08-30T01:08:43;16.19;79.97
68128;SHT30;54931;52.098;21.006;2022-08-30T01:11:19;16.17;79.96
68128;SHT30;54931;52.098;21.006;2022-08-30T01:13:50;16.14;80.02
68128;SHT30;54931;52.098;21.006;2022-08-30T01:16:20;16.12;80.27
68128;SHT30;54931;52.098;21.006;2022-08-30T01:18:51;16.12;80.61
68128;SHT30;54931;52.098;21.006;2022-08-30T01:21:31;16.10;80.76
68128;SHT30;54931;52.098;21.006;2022-08-30T01:24:22;16.12;80.93
68128;SHT30;54931;52.098;21.006;2022-08-30T01:26:50;16.12;80.83
68128;SHT30;54931;52.098;21.006;2022-08-30T01:29:18;16.11;80.86
68128;SHT30;54931;52.098;21.006;2022-08-30T01:31:48;16.11;81.04
68128;SHT30;54931;52.098;21.006;2022-08-30T01:34:16;16.09;81.13
68128;SHT30;54931;52.098;21.006;2022-08-30T01:36:44;16.10;81.14
68128;SHT30;54931;52.098;21.006;2022-08-30T01:39:13;16.09;80.92
68128;SHT30;54931;52.098;21.006;2022-08-30T01:41:44;16.06;80.95
68128;SHT30;54931;52.098;21.006;2022-08-30T01:44:12;16.05;81.01
68128;SHT30;54931;52.098;21.006;2022-08-30T01:46:43;16.03;81.18
68128;SHT30;54931;52.098;21.006;2022-08-30T01:49:13;16.01;81.14
68128;SHT30;54931;52.098;21.006;2022-08-30T01:51:44;15.98;81.14
68128;SHT30;54931;52.098;21.006;2022-08-30T01:54:12;15.96;81.14
68128;SHT30;54931;52.098;21.006;2022-08-30T01:56:40;15.96;81.30
68128;SHT30;54931;52.098;21.006;2022-08-30T01:59:07;15.96;81.45
68128;SHT30;54931;52.098;21.006;2022-08-30T02:01:34;15.95;81.56
68128;SHT30;54931;52.098;21.006;2022-08-30T02:04:05;15.97;81.61
68128;SHT30;54931;52.098;21.006;2022-08-30T02:06:36;15.98;81.62
68128;SHT30;54931;52.098;21.006;2022-08-30T02:09:04;16.01;81.54
68128;SHT30;54931;52.098;21.006;2022-08-30T02:11:32;16.01;81.61
68128;SHT30;54931;52.098;21.006;2022-08-30T02:13:59;16.02;81.79
68128;SHT30;54931;52.098;21.006;2022-08-30T02:16:27;16.04;82.04
68128;SHT30;54931;52.098;21.006;2022-08-30T02:18:55;16.02;81.72
68128;SHT30;54931;52.098;21.006;2022-08-30T02:21:23;16.03;81.90
68128;SHT30;54931;52.098;21.006;2022-08-30T02:23:53;16.03;82.09
68128;SHT30;54931;52.098;21.006;2022-08-30T02:26:20;16.04;81.91
68128;SHT30;54931;52.098;21.006;2022-08-30T02:28:49;16.04;82.00
68128;SHT30;54931;52.098;21.006;2022-08-30T02:31:18;16.02;81.85
68128;SHT30;54931;52.098;21.006;2022-08-30T02:33:48;16.01;82.00
68128;SHT30;54931;52.098;21.006;2022-08-30T02:36:18;15.99;82.11
68128;SHT30;54931;52.098;21.006;2022-08-30T02:38:47;15.98;82.32
68128;SHT30;54931;52.098;21.006;2022-08-30T02:41:16;15.96;82.26
68128;SHT30;54931;52.098;21.006;2022-08-30T02:43:45;15.94;82.51
68128;SHT30;54931;52.098;21.006;2022-08-30T02:46:12;15.94;82.40
68128;SHT30;54931;52.098;21.006;2022-08-30T02:48:40;15.94;82.60
68128;SHT30;54931;52.098;21.006;2022-08-30T02:51:08;15.95;82.83
68128;SHT30;54931;52.098;21.006;2022-08-30T02:53:40;15.96;83.05
68128;SHT30;54931;52.098;21.006;2022-08-30T02:56:09;15.97;82.96
68128;SHT30;54931;52.098;21.006;2022-08-30T02:58:38;15.97;82.93
68128;SHT30;54931;52.098;21.006;2022-08-30T03:01:11;15.97;82.93
68128;SHT30;54931;52.098;21.006;2022-08-30T03:03:41;15.98;83.07
68128;SHT30;54931;52.098;21.006;2022-08-30T03:06:10;15.99;83.26
68128;SHT30;54931;52.098;21.006;2022-08-30T03:08:38;16.02;83.15
68128;SHT30;54931;52.098;21.006;2022-08-30T03:11:07;16.03;83.17
68128;SHT30;54931;52.098;21.006;2022-08-30T03:13:34;16.03;82.89
68128;SHT30;54931;52.098;21.006;2022-08-30T03:16:02;16.02;82.84
68128;SHT30;54931;52.098;21.006;2022-08-30T03:18:29;16.01;82.64
68128;SHT30;54931;52.098;21.006;2022-08-30T03:20:56;16.00;82.67
68128;SHT30;54931;52.098;21.006;2022-08-30T03:23:24;16.00;82.51
68128;SHT30;54931;52.098;21.006;2022-08-30T03:25:51;15.94;82.56
68128;SHT30;54931;52.098;21.006;2022-08-30T03:28:18;15.86;82.70
68128;SHT30;54931;52.098;21.006;2022-08-30T03:30:46;15.82;82.89
68128;SHT30;54931;52.098;21.006;2022-08-30T03:33:13;15.78;82.87
68128;SHT30;54931;52.098;21.006;2022-08-30T03:35:41;15.77;82.98
68128;SHT30;54931;52.098;21.006;2022-08-30T03:38:08;15.74;83.04
68128;SHT30;54931;52.098;21.006;2022-08-30T03:40:35;15.75;83.35
68128;SHT30;54931;52.098;21.006;2022-08-30T03:43:03;15.75;83.11
68128;SHT30;54931;52.098;21.006;2022-08-30T03:45:30;15.77;83.28
68128;SHT30;54931;52.098;21.006;2022-08-30T03:47:58;15.76;83.24
68128;SHT30;54931;52.098;21.006;2022-08-30T03:50:28;15.76;83.23
68128;SHT30;54931;52.098;21.006;2022-08-30T03:52:56;15.76;83.32
68128;SHT30;54931;52.098;21.006;2022-08-30T03:55:26;15.76;83.30
68128;SHT30;54931;52.098;21.006;2022-08-30T03:57:56;15.73;83.37
68128;SHT30;54931;52.098;21.006;2022-08-30T04:00:23;15.69;83.47
68128;SHT30;54931;52.098;21.006;2022-08-30T04:02:51;15.69;83.30
68128;SHT30;54931;52.098;21.006;2022-08-30T04:05:18;15.71;83.20
68128;SHT30;54931;52.098;21.006;2022-08-30T04:07:45;15.73;83.12
68128;SHT30;54931;52.098;21.006;2022-08-30T04:10:13;15.76;83.31
68128;SHT30;54931;52.098;21.006;2022-08-30T04:12:40;15.76;83.26
68128;SHT30;54931;52.098;21.006;2022-08-30T04:15:07;15.73;83.33
68128;SHT30;54931;52.098;21.006;2022-08-30T04:17:36;15.72;83.44
68128;SHT30;54931;52.098;21.006;2022-08-30T04:20:03;15.73;83.37
68128;SHT30;54931;52.098;21.006;2022-08-30T04:22:32;15.78;83.42
68128;SHT30;54931;52.098;21.006;2022-08-30T04:25:00;15.80;83.49
68128;SHT30;54931;52.098;21.006;2022-08-30T04:27:27;15.80;84.10
68128;SHT30;54931;52.098;21.006;2022-08-30T04:29:54;15.82;84.01
68128;SHT30;54931;52.098;21.006;2022-08-30T04:32:21;15.87;84.11
68128;SHT30;54931;52.098;21.006;2022-08-30T04:34:49;15.94;83.91
68128;SHT30;54931;52.098;21.006;2022-08-30T04:37:20;16.00;84.02
68128;SHT30;54931;52.098;21.006;2022-08-30T04:39:47;16.04;84.09
68128;SHT30;54931;52.098;21.006;2022-08-30T04:42:16;16.10;84.00
68128;SHT30;54931;52.098;21.006;2022-08-30T04:44:43;16.19;83.94
68128;SHT30;54931;52.098;21.006;2022-08-30T04:47:10;16.30;83.78
68128;SHT30;54931;52.098;21.006;2022-08-30T04:49:37;16.38;83.76
68128;SHT30;54931;52.098;21.006;2022-08-30T04:52:05;16.57;83.53
68128;SHT30;54931;52.098;21.006;2022-08-30T04:54:34;16.88;83.16
68128;SHT30;54931;52.098;21.006;2022-08-30T04:57:01;17.23;82.08
68128;SHT30;54931;52.098;21.006;2022-08-30T04:59:28;17.42;81.35
68128;SHT30;54931;52.098;21.006;2022-08-30T05:01:55;17.61;80.74
68128;SHT30;54931;52.098;21.006;2022-08-30T05:04:22;17.59;80.37
68128;SHT30;54931;52.098;21.006;2022-08-30T05:06:50;17.48;80.44
68128;SHT30;54931;52.098;21.006;2022-08-30T05:09:18;17.41;80.51
68128;SHT30;54931;52.098;21.006;2022-08-30T05:11:47;17.33;80.74
68128;SHT30;54931;52.098;21.006;2022-08-30T05:14:14;17.27;80.96
68128;SHT30;54931;52.098;21.006;2022-08-30T05:16:41;17.25;81.08
68128;SHT30;54931;52.098;21.006;2022-08-30T05:19:08;17.23;81.11
68128;SHT30;54931;52.098;21.006;2022-08-30T05:21:36;17.21;81.14
68128;SHT30;54931;52.098;21.006;2022-08-30T05:24:06;17.18;81.19
68128;SHT30;54931;52.098;21.006;2022-08-30T05:26:33;17.19;81.10
68128;SHT30;54931;52.098;21.006;2022-08-30T05:29:04;17.20;81.07
68128;SHT30;54931;52.098;21.006;2022-08-30T05:31:32;17.22;80.99
68128;SHT30;54931;52.098;21.006;2022-08-30T05:34:02;17.20;80.82
68128;SHT30;54931;52.098;21.006;2022-08-30T05:36:32;17.20;80.81
68128;SHT30;54931;52.098;21.006;2022-08-30T05:39:02;17.25;80.93
68128;SHT30;54931;52.098;21.006;2022-08-30T05:41:32;17.34;80.55
68128;SHT30;54931;52.098;21.006;2022-08-30T05:44:00;17.42;80.16
68128;SHT30;54931;52.098;21.006;2022-08-30T05:46:29;17.49;79.77
68128;SHT30;54931;52.098;21.006;2022-08-30T05:49:00;17.55;79.69
68128;SHT30;54931;52.098;21.006;2022-08-30T05:51:31;17.62;79.86
68128;SHT30;54931;52.098;21.006;2022-08-30T05:54:01;17.75;79.60
68128;SHT30;54931;52.098;21.006;2022-08-30T05:56:30;17.89;79.08
68128;SHT30;54931;52.098;21.006;2022-08-30T05:59:01;17.93;78.60
68128;SHT30;54931;52.098;21.006;2022-08-30T06:01:36;17.91;78.16
68128;SHT30;54931;52.098;21.006;2022-08-30T06:04:08;17.88;78.00
68128;SHT30;54931;52.098;21.006;2022-08-30T06:06:39;17.91;77.89
68128;SHT30;54931;52.098;21.006;2022-08-30T06:09:09;17.91;77.87
68128;SHT30;54931;52.098;21.006;2022-08-30T06:11:39;17.87;77.71
68128;SHT30;54931;52.098;21.006;2022-08-30T06:14:07;17.92;77.91
68128;SHT30;54931;52.098;21.006;2022-08-30T06:16:35;18.04;77.47
68128;SHT30;54931;52.098;21.006;2022-08-30T06:19:06;18.06;76.96
68128;SHT30;54931;52.098;21.006;2022-08-30T06:21:36;18.00;76.74
68128;SHT30;54931;52.098;21.006;2022-08-30T06:24:07;18.01;76.84
68128;SHT30;54931;52.098;21.006;2022-08-30T06:26:37;18.03;76.60
68128;SHT30;54931;52.098;21.006;2022-08-30T06:29:12;18.02;76.61
68128;SHT30;54931;52.098;21.006;2022-08-30T06:31:47;18.03;76.64
68128;SHT30;54931;52.098;21.006;2022-08-30T06:34:15;18.08;76.64
68128;SHT30;54931;52.098;21.006;2022-08-30T06:36:43;18.33;76.27
68128;SHT30;54931;52.098;21.006;2022-08-30T06:39:10;18.36;75.90
68128;SHT30;54931;52.098;21.006;2022-08-30T06:41:38;18.33;75.93
68128;SHT30;54931;52.098;21.006;2022-08-30T06:44:07;18.29;75.72
68128;SHT30;54931;52.098;21.006;2022-08-30T06:46:36;18.22;75.54
68128;SHT30;54931;52.098;21.006;2022-08-30T06:49:05;18.23;75.74
68128;SHT30;54931;52.098;21.006;2022-08-30T06:51:35;18.27;75.53
68128;SHT30;54931;52.098;21.006;2022-08-30T06:54:05;18.33;75.53
68128;SHT30;54931;52.098;21.006;2022-08-30T06:56:33;18.41;75.55
68128;SHT30;54931;52.098;21.006;2022-08-30T06:59:01;18.50;75.56
68128;SHT30;54931;52.098;21.006;2022-08-30T07:01:30;18.59;75.19
68128;SHT30;54931;52.098;21.006;2022-08-30T07:03:58;18.69;75.20
68128;SHT30;54931;52.098;21.006;2022-08-30T07:06:27;18.72;74.44
68128;SHT30;54931;52.098;21.006;2022-08-30T07:08:56;18.65;74.58
68128;SHT30;54931;52.098;21.006;2022-08-30T07:11:24;18.70;74.81
68128;SHT30;54931;52.098;21.006;2022-08-30T07:13:58;18.83;74.47
68128;SHT30;54931;52.098;21.006;2022-08-30T07:16:26;19.03;74.17
68128;SHT30;54931;52.098;21.006;2022-08-30T07:18:55;19.21;73.55
68128;SHT30;54931;52.098;21.006;2022-08-30T07:21:25;19.48;73.31
68128;SHT30;54931;52.098;21.006;2022-08-30T07:23:58;19.75;72.87
68128;SHT30;54931;52.098;21.006;2022-08-30T07:26:28;20.04;71.93
68128;SHT30;54931;52.098;21.006;2022-08-30T07:29:00;20.22;70.42
68128;SHT30;54931;52.098;21.006;2022-08-30T07:31:28;20.34;70.40
68128;SHT30;54931;52.098;21.006;2022-08-30T07:33:56;20.50;69.84
68128;SHT30;54931;52.098;21.006;2022-08-30T07:36:24;20.45;68.36
68128;SHT30;54931;52.098;21.006;2022-08-30T07:38:51;20.29;68.54
68128;SHT30;54931;52.098;21.006;2022-08-30T07:41:24;20.06;68.92
68128;SHT30;54931;52.098;21.006;2022-08-30T07:43:55;19.84;69.81
68128;SHT30;54931;52.098;21.006;2022-08-30T07:46:23;19.76;70.26
68128;SHT30;54931;52.098;21.006;2022-08-30T07:48:53;19.74;70.70
68128;SHT30;54931;52.098;21.006;2022-08-30T07:51:22;19.80;71.00
68128;SHT30;54931;52.098;21.006;2022-08-30T07:53:52;19.82;70.54
68128;SHT30;54931;52.098;21.006;2022-08-30T07:56:21;19.85;70.68
68128;SHT30;54931;52.098;21.006;2022-08-30T07:58:50;19.93;70.62
68128;SHT30;54931;52.098;21.006;2022-08-30T08:01:18;19.94;70.00
68128;SHT30;54931;52.098;21.006;2022-08-30T08:03:48;20.18;69.94
68128;SHT30;54931;52.098;21.006;2022-08-30T08:06:17;20.60;69.18
68128;SHT30;54931;52.098;21.006;2022-08-30T08:08:47;21.11;67.84
68128;SHT30;54931;52.098;21.006;2022-08-30T08:11:17;21.67;66.38
68128;SHT30;54931;52.098;21.006;2022-08-30T08:13:49;22.06;64.16
68128;SHT30;54931;52.098;21.006;2022-08-30T08:16:19;22.48;63.90
68128;SHT30;54931;52.098;21.006;2022-08-30T08:18:50;22.75;62.15
68128;SHT30;54931;52.098;21.006;2022-08-30T08:21:19;22.68;61.56
68128;SHT30;54931;52.098;21.006;2022-08-30T08:23:49;22.36;60.89
68128;SHT30;54931;52.098;21.006;2022-08-30T08:26:17;22.12;61.54
68128;SHT30;54931;52.098;21.006;2022-08-30T08:28:46;21.99;62.21
68128;SHT30;54931;52.098;21.006;2022-08-30T08:31:18;21.89;62.64
68128;SHT30;54931;52.098;21.006;2022-08-30T08:33:50;21.88;63.30
68128;SHT30;54931;52.098;21.006;2022-08-30T08:36:17;21.89;62.68
68128;SHT30;54931;52.098;21.006;2022-08-30T08:38:44;21.84;62.31
68128;SHT30;54931;52.098;21.006;2022-08-30T08:43:44;22.15;61.96
68128;SHT30;54931;52.098;21.006;2022-08-30T08:46:16;22.22;61.06
68128;SHT30;54931;52.098;21.006;2022-08-30T08:49:00;22.24;61.19
68128;SHT30;54931;52.098;21.006;2022-08-30T08:51:34;22.34;61.12
68128;SHT30;54931;52.098;21.006;2022-08-30T08:54:29;22.27;61.15
68128;SHT30;54931;52.098;21.006;2022-08-30T08:57:21;22.10;61.75
68128;SHT30;54931;52.098;21.006;2022-08-30T08:59:49;22.09;61.36
68128;SHT30;54931;52.098;21.006;2022-08-30T09:02:27;22.37;60.96
68128;SHT30;54931;52.098;21.006;2022-08-30T09:05:24;22.64;59.56
68128;SHT30;54931;52.098;21.006;2022-08-30T09:08:02;22.79;58.55
68128;SHT30;54931;52.098;21.006;2022-08-30T09:10:45;22.73;58.34
68128;SHT30;54931;52.098;21.006;2022-08-30T09:13:27;22.50;58.66
68128;SHT30;54931;52.098;21.006;2022-08-30T09:15:55;22.34;59.38
68128;SHT30;54931;52.098;21.006;2022-08-30T09:18:44;22.20;59.81
68128;SHT30;54931;52.098;21.006;2022-08-30T09:23:55;21.86;60.62
68128;SHT30;54931;52.098;21.006;2022-08-30T09:26:31;21.73;61.32
68128;SHT30;54931;52.098;21.006;2022-08-30T09:29:02;21.66;61.77
68128;SHT30;54931;52.098;21.006;2022-08-30T09:31:32;21.68;62.00
68128;SHT30;54931;52.098;21.006;2022-08-30T09:34:29;21.62;61.73
68128;SHT30;54931;52.098;21.006;2022-08-30T09:36:58;21.44;61.74
68128;SHT30;54931;52.098;21.006;2022-08-30T09:39:30;21.21;61.95
68128;SHT30;54931;52.098;21.006;2022-08-30T09:42:11;21.07;62.36
68128;SHT30;54931;52.098;21.006;2022-08-30T09:44:46;20.98;62.83
68128;SHT30;54931;52.098;21.006;2022-08-30T09:47:22;20.93;63.03
68128;SHT30;54931;52.098;21.006;2022-08-30T09:50:03;20.95;63.24
68128;SHT30;54931;52.098;21.006;2022-08-30T09:52:50;20.94;63.45
68128;SHT30;54931;52.098;21.006;2022-08-30T10:01:52;20.89;64.40
68128;SHT30;54931;52.098;21.006;2022-08-30T10:04:54;21.04;64.12
68128;SHT30;54931;52.098;21.006;2022-08-30T10:07:45;21.13;63.86
68128;SHT30;54931;52.098;21.006;2022-08-30T10:10:43;21.27;64.27
68128;SHT30;54931;52.098;21.006;2022-08-30T10:22:07;21.36;64.31
68128;SHT30;54931;52.098;21.006;2022-08-30T10:24:47;21.43;64.74
68128;SHT30;54931;52.098;21.006;2022-08-30T10:27:28;21.68;64.48
68128;SHT30;54931;52.098;21.006;2022-08-30T10:30:06;21.93;63.19
68128;SHT30;54931;52.098;21.006;2022-08-30T10:32:42;22.08;62.16
68128;SHT30;54931;52.098;21.006;2022-08-30T10:35:16;22.21;62.15
68128;SHT30;54931;52.098;21.006;2022-08-30T10:37:52;22.31;61.96
68128;SHT30;54931;52.098;21.006;2022-08-30T10:40:34;22.26;61.76
68128;SHT30;54931;52.098;21.006;2022-08-30T10:43:32;22.04;61.66
68128;SHT30;54931;52.098;21.006;2022-08-30T10:46:14;21.80;62.00
68128;SHT30;54931;52.098;21.006;2022-08-30T10:49:00;21.63;62.77
68128;SHT30;54931;52.098;21.006;2022-08-30T10:57:17;21.53;63.74
68128;SHT30;54931;52.098;21.006;2022-08-30T11:00:23;21.51;63.72
68128;SHT30;54931;52.098;21.006;2022-08-30T11:05:54;21.43;63.61
68128;SHT30;54931;52.098;21.006;2022-08-30T11:15:12;21.80;63.18
68128;SHT30;54931;52.098;21.006;2022-08-30T11:17:56;21.75;63.22
68128;SHT30;54931;52.098;21.006;2022-08-30T11:20:37;21.80;63.13
68128;SHT30;54931;52.098;21.006;2022-08-30T11:26:06;21.58;62.76
68128;SHT30;54931;52.098;21.006;2022-08-30T11:31:06;21.59;61.85
68128;SHT30;54931;52.098;21.006;2022-08-30T11:33:40;21.59;61.74
68128;SHT30;54931;52.098;21.006;2022-08-30T11:38:56;21.75;61.53
68128;SHT30;54931;52.098;21.006;2022-08-30T11:46:50;21.83;61.06
68128;SHT30;54931;52.098;21.006;2022-08-30T11:49:41;21.78;61.71
68128;SHT30;54931;52.098;21.006;2022-08-30T11:55:26;21.71;62.43
68128;SHT30;54931;52.098;21.006;2022-08-30T11:58:25;21.70;60.70
68128;SHT30;54931;52.098;21.006;2022-08-30T12:06:52;21.72;60.08
68128;SHT30;54931;52.098;21.006;2022-08-30T12:20:40;21.86;60.47
68128;SHT30;54931;52.098;21.006;2022-08-30T12:23:20;21.86;59.81
68128;SHT30;54931;52.098;21.006;2022-08-30T12:28:52;21.84;59.62
68128;SHT30;54931;52.098;21.006;2022-08-30T12:31:52;21.84;59.10
68128;SHT30;54931;52.098;21.006;2022-08-30T12:40:15;21.93;58.18
68128;SHT30;54931;52.098;21.006;2022-08-30T12:42:52;21.97;58.95
68128;SHT30;54931;52.098;21.006;2022-08-30T12:45:25;22.07;59.21
68128;SHT30;54931;52.098;21.006;2022-08-30T12:48:04;22.16;59.17
68128;SHT30;54931;52.098;21.006;2022-08-30T12:50:45;22.22;58.56
68128;SHT30;54931;52.098;21.006;2022-08-30T12:56:08;22.32;58.30
68128;SHT30;54931;52.098;21.006;2022-08-30T12:58:44;22.34;57.54
68128;SHT30;54931;52.098;21.006;2022-08-30T13:06:50;22.07;56.15
68128;SHT30;54931;52.098;21.006;2022-08-30T13:11:53;21.78;55.83
68128;SHT30;54931;52.098;21.006;2022-08-30T13:17:19;21.51;56.95
68128;SHT30;54931;52.098;21.006;2022-08-30T13:19:56;21.46;57.67
68128;SHT30;54931;52.098;21.006;2022-08-30T13:25:01;21.31;57.85
68128;SHT30;54931;52.098;21.006;2022-08-30T13:27:31;21.29;58.35
68128;SHT30;54931;52.098;21.006;2022-08-30T13:30:08;21.35;58.85
68128;SHT30;54931;52.098;21.006;2022-08-30T13:32:38;21.43;58.24
68128;SHT30;54931;52.098;21.006;2022-08-30T13:35:06;21.50;58.20
68128;SHT30;54931;52.098;21.006;2022-08-30T13:37:36;21.54;58.06
68128;SHT30;54931;52.098;21.006;2022-08-30T13:40:09;21.59;58.38
68128;SHT30;54931;52.098;21.006;2022-08-30T13:42:40;21.61;57.79
68128;SHT30;54931;52.098;21.006;2022-08-30T13:45:13;21.56;58.09
68128;SHT30;54931;52.098;21.006;2022-08-30T13:47:43;21.50;58.46
68128;SHT30;54931;52.098;21.006;2022-08-30T13:50:13;21.43;58.72
68128;SHT30;54931;52.098;21.006;2022-08-30T13:52:41;21.37;59.26
68128;SHT30;54931;52.098;21.006;2022-08-30T13:55:08;21.33;59.64
68128;SHT30;54931;52.098;21.006;2022-08-30T13:57:37;21.25;59.39
68128;SHT30;54931;52.098;21.006;2022-08-30T14:00:06;21.14;59.70
68128;SHT30;54931;52.098;21.006;2022-08-30T14:02:42;21.06;59.60
68128;SHT30;54931;52.098;21.006;2022-08-30T14:05:10;21.00;59.75
68128;SHT30;54931;52.098;21.006;2022-08-30T14:07:37;20.91;59.60
68128;SHT30;54931;52.098;21.006;2022-08-30T14:10:05;20.86;59.98
68128;SHT30;54931;52.098;21.006;2022-08-30T14:12:43;20.82;59.96
68128;SHT30;54931;52.098;21.006;2022-08-30T14:15:10;20.82;60.34
68128;SHT30;54931;52.098;21.006;2022-08-30T14:17:38;20.82;60.29
68128;SHT30;54931;52.098;21.006;2022-08-30T14:20:05;20.82;60.17
68128;SHT30;54931;52.098;21.006;2022-08-30T14:22:33;20.82;60.43
68128;SHT30;54931;52.098;21.006;2022-08-30T14:25:00;20.82;60.52
68128;SHT30;54931;52.098;21.006;2022-08-30T14:27:28;20.83;60.60
68128;SHT30;54931;52.098;21.006;2022-08-30T14:29:56;20.83;60.94
68128;SHT30;54931;52.098;21.006;2022-08-30T14:32:24;20.87;60.70
68128;SHT30;54931;52.098;21.006;2022-08-30T14:34:51;20.93;60.75
68128;SHT30;54931;52.098;21.006;2022-08-30T14:37:19;20.96;60.62
68128;SHT30;54931;52.098;21.006;2022-08-30T14:39:46;20.98;60.61
68128;SHT30;54931;52.098;21.006;2022-08-30T14:42:13;20.96;60.63
68128;SHT30;54931;52.098;21.006;2022-08-30T14:44:41;20.94;60.86
68128;SHT30;54931;52.098;21.006;2022-08-30T14:47:08;20.91;60.87
68128;SHT30;54931;52.098;21.006;2022-08-30T14:49:36;20.84;60.59
68128;SHT30;54931;52.098;21.006;2022-08-30T14:52:03;20.82;60.83
68128;SHT30;54931;52.098;21.006;2022-08-30T14:54:31;20.77;61.09
68128;SHT30;54931;52.098;21.006;2022-08-30T14:57:00;20.77;61.15
68128;SHT30;54931;52.098;21.006;2022-08-30T14:59:27;20.79;61.14
68128;SHT30;54931;52.098;21.006;2022-08-30T15:01:55;20.83;61.32
68128;SHT30;54931;52.098;21.006;2022-08-30T15:04:22;20.87;61.12
68128;SHT30;54931;52.098;21.006;2022-08-30T15:06:50;20.91;60.82
68128;SHT30;54931;52.098;21.006;2022-08-30T15:09:19;21.01;60.75
68128;SHT30;54931;52.098;21.006;2022-08-30T15:11:49;21.11;60.35
68128;SHT30;54931;52.098;21.006;2022-08-30T15:14:19;21.16;60.39
68128;SHT30;54931;52.098;21.006;2022-08-30T15:16:47;21.16;60.61
68128;SHT30;54931;52.098;21.006;2022-08-30T15:19:14;21.13;60.95
68128;SHT30;54931;52.098;21.006;2022-08-30T15:21:43;21.10;61.08
68128;SHT30;54931;52.098;21.006;2022-08-30T15:24:15;21.05;61.31
68128;SHT30;54931;52.098;21.006;2022-08-30T15:26:46;20.96;61.58
68128;SHT30;54931;52.098;21.006;2022-08-30T15:29:14;20.82;61.95
68128;SHT30;54931;52.098;21.006;2022-08-30T15:31:45;20.73;62.33
68128;SHT30;54931;52.098;21.006;2022-08-30T15:34:15;20.64;62.65
68128;SHT30;54931;52.098;21.006;2022-08-30T15:36:45;20.54;62.12
68128;SHT30;54931;52.098;21.006;2022-08-30T15:39:14;20.46;62.46
68128;SHT30;54931;52.098;21.006;2022-08-30T15:41:43;20.38;62.45
68128;SHT30;54931;52.098;21.006;2022-08-30T15:44:11;20.31;62.64
68128;SHT30;54931;52.098;21.006;2022-08-30T15:46:40;20.27;63.16
68128;SHT30;54931;52.098;21.006;2022-08-30T15:49:19;20.27;63.23
68128;SHT30;54931;52.098;21.006;2022-08-30T15:51:49;20.31;63.45
68128;SHT30;54931;52.098;21.006;2022-08-30T15:54:19;20.32;63.65
68128;SHT30;54931;52.098;21.006;2022-08-30T15:56:49;20.32;63.82
68128;SHT30;54931;52.098;21.006;2022-08-30T15:59:24;20.31;63.85
68128;SHT30;54931;52.098;21.006;2022-08-30T16:01:56;20.27;63.95
68128;SHT30;54931;52.098;21.006;2022-08-30T16:04:24;20.22;63.95
68128;SHT30;54931;52.098;21.006;2022-08-30T16:06:51;20.21;64.08
68128;SHT30;54931;52.098;21.006;2022-08-30T16:09:20;20.20;64.25
68128;SHT30;54931;52.098;21.006;2022-08-30T16:11:48;20.17;64.22
68128;SHT30;54931;52.098;21.006;2022-08-30T16:14:15;20.11;64.33
68128;SHT30;54931;52.098;21.006;2022-08-30T16:16:43;20.07;64.63
68128;SHT30;54931;52.098;21.006;2022-08-30T16:19:11;20.05;64.39
68128;SHT30;54931;52.098;21.006;2022-08-30T16:21:39;20.04;64.31
68128;SHT30;54931;52.098;21.006;2022-08-30T16:24:09;20.02;64.49
68128;SHT30;54931;52.098;21.006;2022-08-30T16:26:37;19.98;64.51
68128;SHT30;54931;52.098;21.006;2022-08-30T16:29:05;19.91;64.77
68128;SHT30;54931;52.098;21.006;2022-08-30T16:31:34;19.89;64.95
68128;SHT30;54931;52.098;21.006;2022-08-30T16:34:02;19.91;65.03
68128;SHT30;54931;52.098;21.006;2022-08-30T16:36:31;19.92;64.95
68128;SHT30;54931;52.098;21.006;2022-08-30T16:39:02;19.91;65.10
68128;SHT30;54931;52.098;21.006;2022-08-30T16:41:32;19.87;65.37
68128;SHT30;54931;52.098;21.006;2022-08-30T16:43:59;19.75;65.76
68128;SHT30;54931;52.098;21.006;2022-08-30T16:46:27;19.65;66.23
68128;SHT30;54931;52.098;21.006;2022-08-30T16:48:57;19.56;66.80
68128;SHT30;54931;52.098;21.006;2022-08-30T16:51:29;19.48;67.13
68128;SHT30;54931;52.098;21.006;2022-08-30T16:54:01;19.35;67.68
68128;SHT30;54931;52.098;21.006;2022-08-30T16:56:33;19.25;68.05
68128;SHT30;54931;52.098;21.006;2022-08-30T16:59:02;19.22;68.21
68128;SHT30;54931;52.098;21.006;2022-08-30T17:01:33;19.16;68.46
68128;SHT30;54931;52.098;21.006;2022-08-30T17:04:04;19.08;68.68
68128;SHT30;54931;52.098;21.006;2022-08-30T17:06:33;18.98;69.01
68128;SHT30;54931;52.098;21.006;2022-08-30T17:09:02;18.96;69.01
68128;SHT30;54931;52.098;21.006;2022-08-30T17:11:31;18.94;68.97
68128;SHT30;54931;52.098;21.006;2022-08-30T17:14:01;18.87;69.17